TimeEST,TemperatureF,Dew PointF,Humidity,Sea Level PressureIn,VisibilityMPH,Wind Direction,Wind SpeedMPH,Gust SpeedMPH,PrecipitationIn,Events,Conditions,WindDirDegrees,DateUTC
12:15 AM,36.0,30.0,79,29.80,10.0,West,11.5,19.6,N/A,,Mostly Cloudy,280,2012-11-09 05:15:00
12:35 AM,36.0,29.8,78,29.81,10.0,West,12.7,19.6,N/A,,Mostly Cloudy,280,2012-11-09 05:35:00
12:55 AM,35.8,29.7,78,29.82,10.0,WNW,13.8,19.6,N/A,,Overcast,290,2012-11-09 05:55:00
1:15 AM,35.6,29.5,78,29.82,10.0,West,12.7,18.4,N/A,,Mostly Cloudy,280,2012-11-09 06:15:00
1:35 AM,35.8,29.1,77,29.83,10.0,WNW,10.4,16.1,N/A,,Mostly Cloudy,290,2012-11-09 06:35:00
1:55 AM,36.0,29.3,77,29.84,10.0,WNW,11.5,17.3,N/A,,Scattered Clouds,300,2012-11-09 06:55:00
2:15 AM,36.3,29.3,76,29.84,10.0,WNW,15.0,19.6,N/A,,Mostly Cloudy,300,2012-11-09 07:15:00
2:35 AM,35.8,29.3,77,29.84,10.0,WNW,13.8,19.6,N/A,,Mostly Cloudy,290,2012-11-09 07:35:00
2:55 AM,35.8,29.3,77,29.84,10.0,WNW,17.3,23.0,N/A,,Overcast,300,2012-11-09 07:55:00
3:15 AM,35.6,29.3,78,29.84,10.0,WNW,12.7,-,N/A,,Mostly Cloudy,290,2012-11-09 08:15:00
3:35 AM,35.6,29.1,77,29.84,10.0,WNW,15.0,19.6,N/A,,Scattered Clouds,300,2012-11-09 08:35:00
3:55 AM,36.0,28.8,75,29.85,10.0,WNW,16.1,25.3,N/A,,Mostly Cloudy,300,2012-11-09 08:55:00
4:15 AM,35.8,28.8,76,29.85,10.0,WNW,17.3,23.0,N/A,,Mostly Cloudy,300,2012-11-09 09:15:00
4:35 AM,35.6,28.9,77,29.85,10.0,WNW,15.0,21.9,N/A,,Scattered Clouds,300,2012-11-09 09:35:00
4:55 AM,35.6,28.8,76,29.86,10.0,WNW,12.7,21.9,N/A,,Scattered Clouds,290,2012-11-09 09:55:00
5:15 AM,35.8,28.4,75,29.86,10.0,WNW,13.8,-,N/A,,Scattered Clouds,300,2012-11-09 10:15:00
5:35 AM,36.5,28.0,71,29.87,10.0,WNW,16.1,29.9,N/A,,Mostly Cloudy,300,2012-11-09 10:35:00
5:55 AM,36.5,28.0,71,29.87,10.0,WNW,13.8,28.8,N/A,,Scattered Clouds,300,2012-11-09 10:55:00
6:15 AM,36.0,28.4,74,29.88,10.0,WNW,9.2,-,N/A,,Mostly Cloudy,300,2012-11-09 11:15:00
6:55 AM,36.5,28.4,72,29.90,10.0,West,9.2,21.9,N/A,,Overcast,280,2012-11-09 11:55:00
7:15 AM,36.3,28.8,74,29.90,10.0,West,8.1,16.1,N/A,,Overcast,280,2012-11-09 12:15:00
7:35 AM,36.5,28.8,74,29.91,10.0,West,11.5,21.9,N/A,,Mostly Cloudy,270,2012-11-09 12:35:00
7:55 AM,36.7,28.6,72,29.91,10.0,West,13.8,19.6,N/A,,Scattered Clouds,270,2012-11-09 12:55:00
8:35 AM,36.7,28.0,71,29.92,10.0,West,12.7,24.2,N/A,,Clear,270,2012-11-09 13:35:00
8:55 AM,36.9,28.0,70,29.93,10.0,West,8.1,19.6,N/A,,Scattered Clouds,280,2012-11-09 13:55:00
9:15 AM,37.6,28.0,68,29.94,10.0,West,16.1,25.3,N/A,,Clear,280,2012-11-09 14:15:00
9:35 AM,37.6,28.0,68,29.94,10.0,West,15.0,21.9,N/A,,Clear,270,2012-11-09 14:35:00
9:55 AM,38.3,28.2,67,29.94,10.0,West,12.7,20.7,N/A,,Scattered Clouds,260,2012-11-09 14:55:00
10:15 AM,38.8,27.9,65,29.95,10.0,West,3.5,21.9,N/A,,Clear,270,2012-11-09 15:15:00
10:35 AM,40.3,25.5,56,29.95,10.0,NW,13.8,23.0,N/A,,Clear,310,2012-11-09 15:35:00
10:55 AM,41.2,25.9,55,29.95,10.0,NW,4.6,-,N/A,,Clear,320,2012-11-09 15:55:00
11:15 AM,41.9,26.1,53,29.94,10.0,West,11.5,-,N/A,,Clear,280,2012-11-09 16:15:00
11:55 AM,43.2,24.6,48,29.94,10.0,WNW,13.8,21.9,N/A,,Clear,290,2012-11-09 16:55:00
12:15 PM,44.6,24.3,45,29.93,10.0,WNW,15.0,21.9,N/A,,Clear,300,2012-11-09 17:15:00
12:35 PM,45.0,22.3,41,29.93,10.0,WNW,13.8,26.5,N/A,,Clear,300,2012-11-09 17:35:00
12:55 PM,46.0,22.1,39,29.93,10.0,NW,13.8,19.6,N/A,,Clear,310,2012-11-09 17:55:00
1:15 PM,46.4,21.2,37,29.94,10.0,WNW,11.5,18.4,N/A,,Clear,300,2012-11-09 18:15:00
1:35 PM,46.8,21.9,37,29.94,10.0,WNW,8.1,16.1,N/A,,Clear,290,2012-11-09 18:35:00
1:55 PM,47.1,20.3,35,29.95,10.0,NW,8.1,20.7,N/A,,Clear,310,2012-11-09 18:55:00
2:15 PM,47.5,19.4,33,29.95,10.0,NW,13.8,-,N/A,,Clear,320,2012-11-09 19:15:00
2:35 PM,47.3,19.6,33,29.95,10.0,NW,6.9,-,N/A,,Clear,310,2012-11-09 19:35:00
2:55 PM,46.4,21.7,38,29.96,10.0,West,11.5,17.3,N/A,,Clear,280,2012-11-09 19:55:00
3:15 PM,45.5,20.8,38,29.97,10.0,WNW,11.5,20.7,N/A,,Clear,290,2012-11-09 20:15:00
3:35 PM,44.8,19.9,37,29.98,10.0,WNW,8.1,-,N/A,,Scattered Clouds,300,2012-11-09 20:35:00
3:55 PM,44.2,19.6,37,29.99,10.0,WNW,4.6,-,N/A,,Mostly Cloudy,300,2012-11-09 20:55:00
4:15 PM,44.1,21.7,41,30.00,10.0,NW,6.9,-,N/A,,Overcast,310,2012-11-09 21:15:00
4:35 PM,43.7,23.2,44,30.01,10.0,West,6.9,-,N/A,,Overcast,270,2012-11-09 21:35:00
4:55 PM,43.3,24.8,48,30.01,10.0,WNW,5.8,-,N/A,,Overcast,300,2012-11-09 21:55:00
5:15 PM,43.2,25.7,50,30.01,10.0,NW,8.1,16.1,N/A,,Overcast,320,2012-11-09 22:15:00
5:35 PM,43.0,25.9,51,30.02,10.0,WNW,4.6,-,N/A,,Overcast,300,2012-11-09 22:35:00
5:55 PM,43.0,26.2,52,30.02,10.0,NW,4.6,-,N/A,,Overcast,310,2012-11-09 22:55:00
6:15 PM,42.8,26.2,52,30.03,10.0,NW,4.6,-,N/A,,Overcast,310,2012-11-09 23:15:00
6:35 PM,42.4,26.2,53,30.02,10.0,WNW,5.8,-,N/A,,Overcast,290,2012-11-09 23:35:00
6:55 PM,42.3,27.3,56,30.02,10.0,WNW,11.5,-,N/A,,Overcast,300,2012-11-09 23:55:00
7:15 PM,41.9,27.5,57,30.02,10.0,WNW,8.1,-,N/A,,Mostly Cloudy,290,2012-11-10 00:15:00
7:35 PM,41.4,27.3,57,30.02,10.0,WNW,8.1,-,N/A,,Clear,300,2012-11-10 00:35:00
7:55 PM,41.7,28.2,59,30.03,10.0,NW,8.1,17.3,N/A,,Scattered Clouds,310,2012-11-10 00:55:00
8:15 PM,41.9,28.8,60,30.03,10.0,WNW,10.4,-,N/A,,Mostly Cloudy,290,2012-11-10 01:15:00
8:35 PM,41.9,29.3,61,30.04,10.0,WNW,3.5,-,N/A,,Overcast,300,2012-11-10 01:35:00
8:55 PM,41.9,29.8,62,30.04,10.0,West,3.5,-,N/A,,Overcast,280,2012-11-10 01:55:00
9:15 PM,41.7,30.2,64,30.04,10.0,WNW,4.6,-,N/A,,Scattered Clouds,290,2012-11-10 02:15:00
9:35 PM,41.5,30.2,64,30.04,10.0,WNW,6.9,-,N/A,,Mostly Cloudy,290,2012-11-10 02:35:00
9:55 PM,41.0,30.4,66,30.04,10.0,WNW,8.1,-,N/A,,Scattered Clouds,290,2012-11-10 02:55:00
10:15 PM,41.4,30.9,66,30.05,10.0,WNW,4.6,-,N/A,,Mostly Cloudy,290,2012-11-10 03:15:00
10:35 PM,42.1,30.6,64,30.06,10.0,West,5.8,-,N/A,,Overcast,270,2012-11-10 03:35:00
10:55 PM,42.1,30.6,64,30.06,10.0,WNW,8.1,-,N/A,,Overcast,290,2012-11-10 03:55:00
11:15 PM,41.9,30.7,65,30.05,10.0,West,6.9,-,N/A,,Overcast,280,2012-11-10 04:15:00
11:35 PM,41.9,30.7,65,30.05,10.0,West,5.8,-,N/A,,Overcast,280,2012-11-10 04:35:00
11:55 PM,41.9,30.7,65,30.06,10.0,West,5.8,-,N/A,,Overcast,280,2012-11-10 04:55:00